Time;durP1;ratioP1;P1;durP2;ratioP2;P2;SDS_P1;SDS_P2;PMS_P1;PMS_P2;Temp;Humidity;BMP_temperature;BMP_pressure;BME280_temperature;BME280_humidity;BME280_pressure;Samples;Min_cycle;Max_cycle;Signal;HPM_P1;HPM_P2
2024/04/01 05:00:23;;;;;;;10.30;2.00;;;11.50;96.80;;;;;;4909766;23;20030;31
2024/04/01 05:02:24;;;;;;;7.15;2.20;;;11.50;96.70;;;;;;4006195;29;20088;-78
2024/04/01 05:04:25;;;;;;;9.73;2.20;;;11.50;96.80;;;;;;4009042;29;20050;-78
2024/04/01 05:06:26;;;;;;;7.15;1.98;;;11.60;96.80;;;;;;4007958;29;20057;-75
2024/04/01 05:08:28;;;;;;;7.55;2.13;;;11.60;97.00;;;;;;4009257;29;20054;-75
2024/04/01 05:10:30;;;;;;;6.82;1.80;;;11.70;96.80;;;;;;4009975;29;20102;-76
2024/04/01 05:12:32;;;;;;;8.65;1.70;;;11.60;96.70;;;;;;4009873;29;20050;-77
2024/04/01 05:14:33;;;;;;;8.57;2.10;;;11.40;97.40;;;;;;4009023;29;20058;-78
2024/04/01 05:16:36;;;;;;;7.78;2.55;;;11.30;98.00;;;;;;4009133;29;20126;-78
2024/04/01 05:18:37;;;;;;;9.25;1.85;;;11.20;98.20;;;;;;4003307;29;20095;-77
2024/04/01 05:20:38;;;;;;;8.73;2.30;;;11.20;98.20;;;;;;3999510;29;20051;-77
2024/04/01 05:22:40;;;;;;;5.68;1.70;;;11.20;98.30;;;;;;3998946;29;20054;-75
2024/04/01 05:24:42;;;;;;;7.90;1.98;;;11.30;98.30;;;;;;4001879;29;20061;-77
2024/04/01 05:26:43;;;;;;;8.88;2.28;;;11.30;98.20;;;;;;4008181;29;20469;-78
2024/04/01 05:28:46;;;;;;;10.13;2.30;;;11.30;98.20;;;;;;4009008;29;20058;-79
2024/04/01 05:30:52;;;;;;;6.05;1.83;;;11.30;98.30;;;;;;4008854;29;20050;-80
2024/04/01 05:32:56;;;;;;;8.75;2.22;;;11.30;98.30;;;;;;4008666;29;20050;-80
2024/04/01 05:34:57;;;;;;;11.25;2.17;;;11.20;98.60;;;;;;4009159;29;20109;-79
2024/04/01 05:36:59;;;;;;;9.20;2.20;;;11.10;98.80;;;;;;4008780;29;20201;-78
2024/04/01 05:39:00;;;;;;;8.55;1.92;;;11.10;98.90;;;;;;4008456;29;20053;-80
2024/04/01 05:41:01;;;;;;;7.05;1.60;;;11.10;99.10;;;;;;4008670;29;20085;-79
2024/04/01 05:43:04;;;;;;;6.13;2.30;;;11.10;98.90;;;;;;4008999;29;20065;-75
2024/04/01 05:45:05;;;;;;;10.23;2.17;;;11.10;99.10;;;;;;4008524;29;20046;-76
2024/04/01 05:47:07;;;;;;;8.23;2.20;;;11.20;99.00;;;;;;4006183;29;20140;-79
2024/04/01 05:49:09;;;;;;;6.35;2.28;;;11.20;99.00;;;;;;3995476;29;20058;-77
2024/04/01 05:51:11;;;;;;;7.82;2.42;;;11.20;98.90;;;;;;4006639;29;20102;-78
2024/04/01 05:53:12;;;;;;;12.07;2.70;;;11.20;99.10;;;;;;3996085;29;20079;-79
2024/04/01 05:55:14;;;;;;;7.20;2.22;;;11.20;99.30;;;;;;4009981;29;20053;-78
2024/04/01 05:57:15;;;;;;;8.75;2.28;;;11.20;99.50;;;;;;4008086;29;20061;-79
2024/04/01 05:59:17;;;;;;;9.48;2.20;;;11.20;99.50;;;;;;3966550;29;20055;-77
2024/04/01 06:01:18;;;;;;;7.55;2.28;;;11.00;99.90;;;;;;3963532;30;20213;-78
2024/04/01 06:03:21;;;;;;;9.25;2.03;;;11.10;99.90;;;;;;3963842;30;20090;-79
2024/04/01 06:05:24;;;;;;;10.05;2.05;;;11.00;99.90;;;;;;3962760;30;20059;-79
2024/04/01 06:07:27;;;;;;;6.43;1.90;;;10.90;99.90;;;;;;3957783;30;20109;-77
2024/04/01 06:09:28;;;;;;;9.38;3.17;;;10.90;99.90;;;;;;3959739;29;20059;-78
2024/04/01 06:11:29;;;;;;;5.35;2.00;;;10.90;99.90;;;;;;3963083;30;20058;-77
2024/04/01 06:13:31;;;;;;;15.73;7.13;;;11.00;99.90;;;;;;3962718;30;20126;-78
2024/04/01 06:15:32;;;;;;;14.55;4.25;;;11.00;99.90;;;;;;3962669;29;20051;-78
2024/04/01 06:17:34;;;;;;;13.07;5.90;;;11.10;99.90;;;;;;3962488;30;20114;-78
2024/04/01 06:19:34;;;;;;;6.50;2.05;;;11.20;99.90;;;;;;3948331;30;20117;-78
2024/04/01 06:21:38;;;;;;;15.63;7.10;;;11.20;99.90;;;;;;3962917;30;20051;-77
2024/04/01 06:23:38;;;;;;;21.33;9.68;;;11.20;99.90;;;;;;3963207;30;20055;-78
2024/04/01 06:25:42;;;;;;;15.90;5.82;;;11.20;99.90;;;;;;3962913;30;20058;-76
2024/04/01 06:27:43;;;;;;;5.63;2.42;;;11.20;99.90;;;;;;3963127;30;20158;-77
2024/04/01 06:29:45;;;;;;;8.77;2.40;;;11.20;99.90;;;;;;3962809;30;20055;-76
2024/04/01 06:31:46;;;;;;;7.00;2.10;;;11.20;99.90;;;;;;3960798;29;20047;-79
2024/04/01 06:33:48;;;;;;;8.15;2.53;;;11.10;99.90;;;;;;3960962;29;20081;-80
2024/04/01 06:35:58;;;;;;;6.57;2.00;;;11.10;99.90;;;;;;3962619;30;20535;-80
2024/04/01 06:38:02;;;;;;;9.65;2.03;;;11.20;99.90;;;;;;3951014;29;20052;-76
2024/04/01 06:40:05;;;;;;;5.90;1.85;;;11.20;99.90;;;;;;3947963;30;20056;-77
2024/04/01 06:42:07;;;;;;;9.65;2.22;;;11.20;99.90;;;;;;3961648;30;20082;-76
2024/04/01 06:44:09;;;;;;;5.32;1.90;;;11.20;99.90;;;;;;3951188;30;20058;-77
2024/04/01 06:46:11;;;;;;;7.55;2.10;;;11.20;99.90;;;;;;3952918;30;20052;-78
2024/04/01 06:48:12;;;;;;;5.50;1.83;;;11.10;99.90;;;;;;3953038;30;20059;-77
2024/04/01 06:50:13;;;;;;;6.30;1.90;;;11.20;99.90;;;;;;3962251;30;20055;-77
2024/04/01 06:52:15;;;;;;;5.82;1.70;;;11.10;99.90;;;;;;3963205;30;20222;-78
2024/04/01 06:54:17;;;;;;;5.68;1.60;;;11.10;99.90;;;;;;3958372;30;20051;-79
2024/04/01 06:56:19;;;;;;;5.30;1.67;;;11.20;99.90;;;;;;3947580;30;20047;-77
2024/04/01 06:58:20;;;;;;;7.63;1.90;;;11.20;99.90;;;;;;3949113;30;20052;-75
2024/04/01 07:00:22;;;;;;;7.18;1.73;;;11.20;99.90;;;;;;3959277;30;20108;-77
2024/04/01 07:02:23;;;;;;;4.15;1.50;;;11.20;99.90;;;;;;3958783;30;20469;-77
2024/04/01 07:04:24;;;;;;;4.35;1.40;;;11.20;99.90;;;;;;3962195;30;20107;-76
2024/04/01 07:06:26;;;;;;;5.93;1.50;;;11.20;99.90;;;;;;3962212;30;20489;-77
2024/04/01 07:08:27;;;;;;;4.70;1.52;;;11.20;99.90;;;;;;3961879;30;20054;-77
2024/04/01 07:10:30;;;;;;;6.28;1.80;;;11.20;99.90;;;;;;3941750;29;20058;-76
2024/04/01 07:12:32;;;;;;;6.00;1.60;;;11.30;99.90;;;;;;3971458;29;20047;-77
2024/04/01 07:14:34;;;;;;;11.63;5.30;;;11.20;99.90;;;;;;3967764;29;20093;-78
2024/04/01 07:16:35;;;;;;;10.18;4.10;;;11.30;99.90;;;;;;3974094;29;20047;-79
2024/04/01 07:18:38;;;;;;;11.70;3.05;;;11.30;99.90;;;;;;3967742;29;20073;-78
2024/04/01 07:20:39;;;;;;;8.50;1.63;;;11.30;99.90;;;;;;3972053;29;20082;-80
2024/04/01 07:22:41;;;;;;;8.98;2.28;;;11.30;99.90;;;;;;3982209;29;20656;-79
2024/04/01 07:24:42;;;;;;;7.22;1.75;;;11.30;99.90;;;;;;3970253;29;20108;-78
2024/04/01 07:26:46;;;;;;;8.38;3.45;;;11.30;99.90;;;;;;3972283;29;20120;-79
2024/04/01 07:28:46;;;;;;;5.70;1.63;;;11.40;99.90;;;;;;3972593;29;20134;-80
2024/04/01 07:30:48;;;;;;;6.68;1.40;;;11.40;99.90;;;;;;3970656;29;20410;-76
2024/04/01 07:32:49;;;;;;;5.47;1.98;;;11.40;99.90;;;;;;3974037;29;20432;-77
2024/04/01 07:34:51;;;;;;;6.45;1.60;;;11.40;99.90;;;;;;3976104;29;20129;-78
2024/04/01 07:36:52;;;;;;;6.10;1.80;;;11.40;99.90;;;;;;3976159;29;20558;-80
2024/04/01 07:38:54;;;;;;;4.90;1.17;;;11.40;99.90;;;;;;3975714;29;20063;-78
2024/04/01 07:40:55;;;;;;;5.20;1.38;;;11.40;99.90;;;;;;3969918;29;20051;-77
2024/04/01 07:42:58;;;;;;;6.65;1.42;;;11.40;99.90;;;;;;3965263;29;20112;-78
2024/04/01 07:45:00;;;;;;;4.85;1.05;;;11.40;99.90;;;;;;3964193;29;20051;-77
2024/04/01 07:47:01;;;;;;;4.93;0.90;;;11.40;99.90;;;;;;3970652;29;20082;-78
2024/04/01 07:49:02;;;;;;;4.03;1.20;;;11.30;99.90;;;;;;3974357;29;20127;-79
2024/04/01 07:51:05;;;;;;;3.35;0.95;;;11.20;99.90;;;;;;3977216;29;20058;-78
2024/04/01 07:53:06;;;;;;;4.80;1.50;;;11.30;99.90;;;;;;3969628;29;20463;-77
2024/04/01 07:55:07;;;;;;;5.18;1.08;;;11.30;99.90;;;;;;3974753;29;20097;-76
2024/04/01 07:57:10;;;;;;;6.90;2.92;;;11.20;99.90;;;;;;3969735;29;20046;-76
2024/04/01 07:59:13;;;;;;;17.35;7.70;;;11.20;99.90;;;;;;3973872;29;20089;-77
2024/04/01 08:01:14;;;;;;;13.95;6.18;;;11.20;99.90;;;;;;3964891;30;20059;-75
2024/04/01 08:03:15;;;;;;;3.85;0.95;;;11.10;99.90;;;;;;3965650;29;20120;-74
2024/04/01 08:05:17;;;;;;;1.42;0.60;;;11.10;99.90;;;;;;3965593;29;20052;-75
2024/04/01 08:07:18;;;;;;;2.78;0.93;;;11.10;99.90;;;;;;3977835;29;20554;-76
2024/04/01 08:09:20;;;;;;;3.08;0.93;;;11.00;99.90;;;;;;3975253;29;20078;-75
2024/04/01 08:11:21;;;;;;;2.35;0.60;;;11.00;99.90;;;;;;3983131;29;20047;-78
2024/04/01 08:13:23;;;;;;;3.92;0.77;;;10.90;99.90;;;;;;3966507;29;20158;-79
2024/04/01 08:15:25;;;;;;;1.58;0.50;;;10.80;99.90;;;;;;3971304;29;20089;-79
2024/04/01 08:17:27;;;;;;;1.58;0.50;;;10.70;99.90;;;;;;3966203;29;20062;-76
2024/04/01 08:19:29;;;;;;;4.53;0.63;;;10.60;99.90;;;;;;3973381;29;20071;-79
2024/04/01 08:21:31;;;;;;;3.15;0.70;;;10.60;99.90;;;;;;3967604;29;20059;-78
2024/04/01 08:23:32;;;;;;;3.65;0.65;;;10.60;99.90;;;;;;3981291;29;20050;-78
2024/04/01 08:25:34;;;;;;;1.42;0.40;;;10.60;99.90;;;;;;3978810;29;20113;-80
2024/04/01 08:27:35;;;;;;;2.03;0.63;;;10.60;99.90;;;;;;3978212;29;20054;-77
2024/04/01 08:29:37;;;;;;;3.15;0.68;;;10.60;99.90;;;;;;3973302;29;20047;-78
2024/04/01 08:31:40;;;;;;;2.63;0.80;;;10.70;99.90;;;;;;3972353;29;20061;-80
2024/04/01 08:33:41;;;;;;;1.63;0.50;;;10.70;99.90;;;;;;3972943;29;20063;-78
2024/04/01 08:35:43;;;;;;;1.23;0.35;;;10.80;99.90;;;;;;3970927;29;20047;-78
2024/04/01 08:37:45;;;;;;;1.35;0.43;;;10.80;99.90;;;;;;3969887;29;20108;-77
2024/04/01 08:39:46;;;;;;;5.10;2.17;;;10.90;99.90;;;;;;3973581;29;20558;-78
2024/04/01 08:41:53;;;;;;;2.55;1.13;;;10.90;99.90;;;;;;3970853;29;20047;-79
2024/04/01 08:44:04;;;;;;;2.72;0.80;;;10.90;99.90;;;;;;3971455;29;20135;-79
2024/04/01 08:46:06;;;;;;;2.80;0.50;;;11.00;99.90;;;;;;3966111;29;20051;-78
2024/04/01 08:48:12;;;;;;;1.60;0.70;;;10.90;99.90;;;;;;3968693;29;20051;-76
2024/04/01 08:50:21;;;;;;;1.88;0.60;;;11.00;99.90;;;;;;3972933;29;20055;-77
2024/04/01 08:52:31;;;;;;;3.53;0.80;;;10.90;99.90;;;;;;3971041;29;20636;-77
2024/04/01 08:54:33;;;;;;;1.73;0.70;;;11.00;99.90;;;;;;3965191;29;20054;-76
2024/04/01 08:56:40;;;;;;;1.85;0.50;;;11.00;99.90;;;;;;3964996;29;20466;-78
2024/04/01 08:58:43;;;;;;;0.40;0.30;;;11.10;99.90;;;;;;3965408;29;20055;-75
2024/04/01 09:00:44;;;;;;;1.88;0.60;;;11.20;99.90;;;;;;3969477;29;20409;-79
2024/04/01 09:02:45;;;;;;;1.45;0.50;;;11.20;99.90;;;;;;3974956;29;20051;-79
2024/04/01 09:04:48;;;;;;;2.58;0.77;;;11.30;99.90;;;;;;3980483;29;20137;-78
2024/04/01 09:06:49;;;;;;;1.80;0.70;;;11.40;99.90;;;;;;3976327;29;20461;-78
2024/04/01 09:08:54;;;;;;;0.98;0.40;;;11.40;99.90;;;;;;3973153;29;20058;-77
2024/04/01 09:10:55;;;;;;;1.27;0.40;;;11.40;99.90;;;;;;3968837;29;20051;-78
2024/04/01 09:12:59;;;;;;;1.23;0.52;;;11.40;99.90;;;;;;3983331;29;20054;-77
2024/04/01 09:15:00;;;;;;;1.35;0.40;;;11.50;99.90;;;;;;3978938;29;20050;-79
2024/04/01 09:17:03;;;;;;;2.35;0.45;;;11.50;99.60;;;;;;3970256;29;20059;-76
2024/04/01 09:19:07;;;;;;;0.60;0.30;;;11.50;98.90;;;;;;3982611;29;20055;-75
2024/04/01 09:21:11;;;;;;;1.27;0.30;;;11.50;97.50;;;;;;3971461;29;20055;-77
2024/04/01 09:23:13;;;;;;;0.17;0.10;;;11.40;96.50;;;;;;3977860;29;20081;-77
2024/04/01 09:25:16;;;;;;;0.57;0.15;;;11.40;95.50;;;;;;3971733;29;20120;-78
2024/04/01 09:27:23;;;;;;;0.50;0.20;;;11.40;95.40;;;;;;3965125;29;20055;-78
2024/04/01 09:29:25;;;;;;;0.90;0.30;;;11.50;95.30;;;;;;3970400;29;20085;-79
2024/04/01 09:31:27;;;;;;;0.95;0.30;;;11.50;95.20;;;;;;3969549;29;20059;-78
2024/04/01 09:33:30;;;;;;;1.02;0.30;;;11.50;95.00;;;;;;3971846;29;20059;-77
2024/04/01 09:35:31;;;;;;;0.75;0.28;;;11.60;94.30;;;;;;3984763;29;20078;-79
2024/04/01 09:37:35;;;;;;;0.38;0.20;;;11.50;92.90;;;;;;3979389;29;20505;-82
2024/04/01 09:39:36;;;;;;;0.10;0.10;;;11.40;92.40;;;;;;3975932;29;20051;-80
2024/04/01 09:41:38;;;;;;;0.93;0.30;;;11.50;92.90;;;;;;3970040;29;20067;-79
2024/04/01 09:43:39;;;;;;;0.43;0.20;;;11.60;92.70;;;;;;3973310;29;20046;-80
2024/04/01 09:45:42;;;;;;;0.90;0.30;;;11.60;91.80;;;;;;3975316;29;20050;-81
2024/04/01 09:47:45;;;;;;;0.38;0.20;;;11.70;92.10;;;;;;3961346;29;20051;-78
2024/04/01 09:49:49;;;;;;;0.73;0.30;;;11.80;91.60;;;;;;3975263;29;20474;-80
2024/04/01 09:51:50;;;;;;;0.82;0.20;;;11.90;91.00;;;;;;3978450;29;20088;-84
2024/04/01 09:53:54;;;;;;;0.30;0.20;;;11.90;90.80;;;;;;3977470;29;20058;-83
2024/04/01 09:56:49;;;;;;;0.50;0.20;;;11.90;91.30;;;;;;3969616;29;20107;-79
2024/04/01 09:59:29;;;;;;;0.60;0.20;;;12.00;91.50;;;;;;3962845;29;20066;-80
2024/04/01 10:01:43;;;;;;;1.90;0.30;;;12.00;90.70;;;;;;3959040;29;20167;-79
2024/04/01 10:04:23;;;;;;;0.43;0.20;;;11.90;90.70;;;;;;3982294;29;20062;-79
2024/04/01 10:07:08;;;;;;;1.00;0.40;;;11.80;89.60;;;;;;3967673;29;20047;-80
2024/04/01 10:10:07;;;;;;;0.50;0.20;;;11.90;90.20;;;;;;3971617;29;20055;-80
2024/04/01 10:12:40;;;;;;;0.75;0.32;;;11.90;90.20;;;;;;3974956;29;20085;-81
2024/04/01 10:15:34;;;;;;;0.38;0.20;;;11.90;88.20;;;;;;3973392;29;20516;-80
2024/04/01 10:18:01;;;;;;;14.05;11.70;;;11.90;85.60;;;;;;3968569;29;20493;-79
2024/04/01 10:20:42;;;;;;;6.32;5.70;;;11.80;87.30;;;;;;3962722;29;20089;-82
2024/04/01 10:23:26;;;;;;;0.63;0.20;;;11.70;84.80;;;;;;3967300;29;20127;-78
2024/04/01 10:26:26;;;;;;;0.70;0.22;;;11.60;86.10;;;;;;3966756;29;20069;-78
2024/04/01 10:29:16;;;;;;;0.25;0.10;;;11.60;86.00;;;;;;3981440;29;20050;-79
2024/04/01 10:31:53;;;;;;;0.32;0.20;;;11.60;86.20;;;;;;3970933;29;20478;-79
2024/04/01 10:34:48;;;;;;;1.10;0.35;;;11.50;85.90;;;;;;3974564;29;20083;-80
2024/04/01 10:37:35;;;;;;;0.80;0.25;;;11.50;85.20;;;;;;3968495;29;20104;-80
2024/04/01 10:39:57;;;;;;;1.42;0.30;;;11.50;86.00;;;;;;3968873;29;20077;-80
2024/04/01 10:42:41;;;;;;;0.70;0.20;;;11.50;84.80;;;;;;3986387;29;20584;-80
2024/04/01 10:45:55;;;;;;;0.47;0.20;;;11.50;84.10;;;;;;3943402;29;20125;-75
2024/04/01 10:48:16;;;;;;;0.98;0.38;;;11.50;85.20;;;;;;3898324;30;20607;-78
2024/04/01 10:51:17;;;;;;;0.73;0.30;;;11.50;85.20;;;;;;3957292;29;20047;-76
2024/04/01 10:53:52;;;;;;;0.35;0.20;;;11.50;84.50;;;;;;3968201;29;20477;-78
2024/04/01 10:56:59;;;;;;;0.85;0.25;;;11.50;84.80;;;;;;3968669;29;20055;-79
2024/04/01 10:59:37;;;;;;;0.50;0.17;;;11.30;83.80;;;;;;3931167;30;20176;-78
2024/04/01 11:01:51;;;;;;;1.13;0.45;;;11.30;82.80;;;;;;3963824;29;20054;-78
2024/04/01 11:04:23;;;;;;;0.38;0.20;;;11.30;84.10;;;;;;3975587;29;20050;-78
2024/04/01 11:06:52;;;;;;;1.23;0.40;;;11.30;83.10;;;;;;3976431;29;20054;-79
2024/04/01 11:09:13;;;;;;;2.03;0.32;;;11.30;83.90;;;;;;3977674;29;20100;-78
2024/04/01 11:11:31;;;;;;;2.58;0.85;;;11.20;82.40;;;;;;3976256;29;20054;-79
2024/04/01 11:13:37;;;;;;;0.63;0.10;;;11.20;84.10;;;;;;3976762;29;20062;-78
2024/04/01 11:15:40;;;;;;;0.32;0.10;;;11.10;84.60;;;;;;3977099;29;20405;-78
2024/04/01 11:17:45;;;;;;;0.38;0.10;;;11.00;84.70;;;;;;3977173;29;20462;-79
2024/04/01 11:20:14;;;;;;;0.90;0.20;;;11.00;85.20;;;;;;3977425;29;20047;-79
2024/04/01 11:22:33;;;;;;;0.13;0.10;;;11.10;85.90;;;;;;3977185;29;20084;-78
2024/04/01 11:24:43;;;;;;;0.20;0.00;;;11.20;87.20;;;;;;3976998;29;20472;-79
2024/04/01 11:27:22;;;;;;;0.17;0.10;;;11.10;87.50;;;;;;3977576;29;20089;-77
2024/04/01 11:29:54;;;;;;;0.30;0.20;;;11.30;87.60;;;;;;3974226;29;20055;-77
2024/04/01 11:32:00;;;;;;;3.03;0.35;;;11.30;86.40;;;;;;3977092;29;20590;-79
2024/04/01 11:34:09;;;;;;;0.60;0.30;;;11.40;86.90;;;;;;3977421;29;20051;-79
2024/04/01 11:36:19;;;;;;;0.20;0.10;;;11.40;85.80;;;;;;3977035;29;20055;-79
2024/04/01 11:38:40;;;;;;;1.08;0.22;;;11.30;85.50;;;;;;3976920;29;20054;-79
2024/04/01 11:40:42;;;;;;;0.20;0.10;;;11.30;85.50;;;;;;3977343;29;20460;-80
2024/04/01 11:42:47;;;;;;;0.10;0.10;;;11.20;84.40;;;;;;3977214;29;20501;-79
2024/04/01 11:44:51;;;;;;;1.70;0.30;;;11.10;83.80;;;;;;3977430;29;20062;-79
2024/04/01 11:46:57;;;;;;;0.88;0.17;;;11.10;83.70;;;;;;3977186;29;20111;-77
2024/04/01 11:48:59;;;;;;;;;;;11.10;82.90;;;;;;3977637;29;20405;-79
2024/04/01 11:51:00;;;;;;;0.30;0.20;;;11.20;82.30;;;;;;3977122;29;19929;-79
2024/04/01 11:53:04;;;;;;;0.32;0.10;;;11.10;82.20;;;;;;3977154;29;20451;-79
2024/04/01 11:55:12;;;;;;;0.30;0.10;;;11.00;81.40;;;;;;3977177;29;20054;-79
2024/04/01 11:57:22;;;;;;;0.82;0.30;;;10.90;82.30;;;;;;3977005;29;20166;-78
2024/04/01 11:59:29;;;;;;;2.15;0.40;;;10.90;83.00;;;;;;3976929;29;20054;-79
2024/04/01 12:01:34;;;;;;;0.55;0.30;;;11.00;83.20;;;;;;3976795;29;20131;-79
2024/04/01 12:03:40;;;;;;;0.93;0.30;;;11.00;83.90;;;;;;3977886;29;20116;-78
2024/04/01 12:05:47;;;;;;;0.60;0.22;;;11.00;82.80;;;;;;3977045;29;20054;-79
2024/04/01 12:07:50;;;;;;;0.20;0.10;;;10.90;83.40;;;;;;3977395;29;20055;-77
2024/04/01 12:09:52;;;;;;;0.65;0.20;;;10.90;83.40;;;;;;3976862;29;20115;-79
2024/04/01 12:11:54;;;;;;;0.65;0.30;;;10.90;84.20;;;;;;3977275;29;20051;-77
2024/04/01 12:13:56;;;;;;;0.95;0.40;;;10.70;84.10;;;;;;3977088;29;20058;-77
2024/04/01 12:15:59;;;;;;;0.13;0.10;;;10.80;84.60;;;;;;3977015;29;20055;-79
2024/04/01 12:18:01;;;;;;;0.40;0.20;;;10.80;83.80;;;;;;3976004;29;20055;-80
2024/04/01 12:20:06;;;;;;;0.98;0.20;;;10.80;84.60;;;;;;3977003;29;20071;-78
2024/04/01 12:22:09;;;;;;;0.32;0.10;;;10.90;84.60;;;;;;3974128;29;20058;-77
2024/04/01 12:24:10;;;;;;;0.13;0.10;;;11.00;84.00;;;;;;3974664;29;20108;-81
2024/04/01 12:26:14;;;;;;;0.60;0.20;;;10.80;84.10;;;;;;3972621;29;20058;-81
2024/04/01 12:28:15;;;;;;;2.13;0.20;;;10.70;84.10;;;;;;3976370;29;20058;-80
2024/04/01 12:30:18;;;;;;;0.68;0.30;;;10.80;84.50;;;;;;3961058;29;20494;-80
2024/04/01 12:32:20;;;;;;;0.80;0.20;;;10.90;84.80;;;;;;3960560;29;20471;-78
2024/04/01 12:34:22;;;;;;;1.35;0.10;;;10.90;84.50;;;;;;3965703;29;20111;-77
2024/04/01 12:36:25;;;;;;;1.38;0.20;;;10.90;84.70;;;;;;3962611;29;20063;-81
2024/04/01 12:38:33;;;;;;;0.30;0.10;;;11.00;84.40;;;;;;3975256;29;20059;-79
2024/04/01 12:40:43;;;;;;;0.25;0.10;;;10.90;84.10;;;;;;3982184;29;20082;-81
2024/04/01 12:42:45;;;;;;;1.08;0.10;;;11.00;83.30;;;;;;3966841;29;20124;-84
2024/04/01 12:44:47;;;;;;;0.22;0.10;;;11.20;83.30;;;;;;3968628;29;20142;-83
2024/04/01 12:46:50;;;;;;;0.00;0.00;;;11.00;80.10;;;;;;3975136;29;20134;-84
2024/04/01 12:48:55;;;;;;;0.00;0.00;;;11.10;80.90;;;;;;3987229;29;20046;-82
2024/04/01 12:50:59;;;;;;;0.15;0.00;;;11.10;78.90;;;;;;3970630;29;20058;-82
2024/04/01 12:53:17;;;;;;;0.03;0.00;;;11.00;78.40;;;;;;3975729;29;20086;-79
2024/04/01 12:55:23;;;;;;;0.20;0.10;;;11.10;77.70;;;;;;3970120;29;20067;-80
2024/04/01 12:57:44;;;;;;;0.00;0.00;;;11.20;77.80;;;;;;3964716;29;20150;-80
2024/04/01 13:00:02;;;;;;;0.03;0.03;;;11.10;77.20;;;;;;3972464;29;20111;-77
2024/04/01 13:02:34;;;;;;;0.00;0.00;;;11.20;77.20;;;;;;3969394;29;20148;-78
2024/04/01 13:04:58;;;;;;;0.10;0.00;;;11.00;77.50;;;;;;3978853;29;20478;-76
2024/04/01 13:07:10;;;;;;;0.17;0.00;;;10.90;78.80;;;;;;3968587;29;20549;-79
2024/04/01 13:09:21;;;;;;;0.38;0.10;;;11.00;79.20;;;;;;3966808;29;20462;-79
2024/04/01 13:11:48;;;;;;;0.35;0.10;;;11.10;78.50;;;;;;3965533;29;20052;-79
2024/04/01 13:14:22;;;;;;;0.70;0.17;;;11.20;79.40;;;;;;3974349;29;20050;-78
2024/04/01 13:16:32;;;;;;;0.15;0.15;;;11.50;79.20;;;;;;3969409;29;20047;-79
2024/04/01 13:18:48;;;;;;;0.50;0.10;;;11.60;78.40;;;;;;3976499;29;20061;-76
2024/04/01 13:20:57;;;;;;;;;;;11.60;77.70;;;;;;3963630;29;20120;-77
2024/04/01 13:23:08;;;;;;;0.20;0.10;;;11.60;77.60;;;;;;3967377;29;20294;-79
2024/04/01 13:25:21;;;;;;;0.28;0.20;;;11.60;77.80;;;;;;3962754;29;20063;-79
2024/04/01 13:27:35;;;;;;;0.57;0.10;;;11.50;77.10;;;;;;3969610;29;20046;-79
2024/04/01 13:29:52;;;;;;;0.13;0.10;;;11.60;78.10;;;;;;3968707;29;20551;-79
2024/04/01 13:32:03;;;;;;;1.75;0.10;;;11.60;77.50;;;;;;3979744;29;20093;-79
2024/04/01 13:34:24;;;;;;;0.73;0.10;;;11.70;78.50;;;;;;3961927;29;20093;-78
2024/04/01 13:36:34;;;;;;;0.80;0.10;;;11.80;78.60;;;;;;3968862;29;20063;-77
2024/04/01 13:38:54;;;;;;;0.52;0.20;;;11.60;78.90;;;;;;3976991;29;20112;-80
2024/04/01 13:41:14;;;;;;;0.43;0.20;;;11.70;79.40;;;;;;3963330;29;20055;-78
2024/04/01 13:43:33;;;;;;;0.25;0.10;;;11.80;79.10;;;;;;3969155;29;20468;-79
2024/04/01 13:45:50;;;;;;;0.30;0.20;;;11.40;77.20;;;;;;3962660;29;20051;-79
2024/04/01 13:48:14;;;;;;;1.90;0.20;;;11.40;78.30;;;;;;3970824;29;20404;-77
2024/04/01 13:50:23;;;;;;;0.57;0.20;;;11.50;78.60;;;;;;3970212;29;20067;-79
2024/04/01 13:52:45;;;;;;;1.30;0.15;;;11.50;79.80;;;;;;3962687;29;20178;-79
2024/04/01 13:54:55;;;;;;;0.80;0.25;;;11.50;78.50;;;;;;3962562;29;20056;-79
2024/04/01 13:57:27;;;;;;;0.50;0.13;;;11.70;78.10;;;;;;3968668;29;20058;-79
2024/04/01 13:59:35;;;;;;;0.25;0.17;;;11.70;76.10;;;;;;3966138;29;20055;-78
2024/04/01 14:01:50;;;;;;;0.68;0.22;;;11.70;74.50;;;;;;3962393;29;20120;-78
2024/04/01 14:04:12;;;;;;;0.45;0.20;;;11.80;74.10;;;;;;3963528;29;20102;-77
2024/04/01 14:06:30;;;;;;;1.75;0.40;;;12.00;75.20;;;;;;3980699;29;20137;-79
2024/04/01 14:08:39;;;;;;;0.90;0.30;;;12.40;73.50;;;;;;3980286;29;20331;-79
2024/04/01 14:10:52;;;;;;;0.65;0.30;;;12.50;71.60;;;;;;3966709;29;20087;-78
2024/04/01 14:13:13;;;;;;;0.52;0.30;;;12.50;70.80;;;;;;3963891;29;20108;-75
2024/04/01 14:15:23;;;;;;;1.38;0.28;;;12.80;68.90;;;;;;3966392;29;20452;-79
2024/04/01 14:17:38;;;;;;;4.13;2.22;;;12.80;67.80;;;;;;3962540;29;20048;-78
2024/04/01 14:19:49;;;;;;;1.25;0.50;;;12.90;66.80;;;;;;3978194;29;20089;-78
2024/04/01 14:21:51;;;;;;;0.70;0.30;;;12.90;67.80;;;;;;3971574;29;20506;-80
2024/04/01 14:23:55;;;;;;;3.92;0.30;;;13.50;64.80;;;;;;3967584;29;20481;-79
2024/04/01 14:25:57;;;;;;;1.15;0.20;;;13.10;66.00;;;;;;3963638;29;20146;-78
2024/04/01 14:27:59;;;;;;;1.70;0.30;;;12.70;65.40;;;;;;3977895;29;20054;-78
2024/04/01 14:30:01;;;;;;;0.85;0.20;;;12.40;67.20;;;;;;3962394;29;20054;-78
2024/04/01 14:32:03;;;;;;;0.60;0.20;;;12.30;68.20;;;;;;3962161;29;20047;-78
2024/04/01 14:34:05;;;;;;;0.30;0.10;;;12.00;68.30;;;;;;3977200;29;20147;-78
2024/04/01 14:36:07;;;;;;;0.43;0.20;;;11.90;69.00;;;;;;3962499;29;20120;-79
2024/04/01 14:38:13;;;;;;;0.73;0.30;;;11.90;70.10;;;;;;3977451;29;20055;-77
2024/04/01 14:40:14;;;;;;;0.60;0.20;;;11.90;71.50;;;;;;3964869;29;20111;-78
2024/04/01 14:42:16;;;;;;;1.10;0.30;;;11.80;71.40;;;;;;3966439;29;20491;-79
2024/04/01 14:44:18;;;;;;;1.60;0.25;;;11.70;71.40;;;;;;3970541;29;20048;-78
2024/04/01 14:46:21;;;;;;;1.00;0.28;;;11.70;72.30;;;;;;3967713;29;20063;-76
2024/04/01 14:48:22;;;;;;;0.28;0.17;;;11.80;73.40;;;;;;3988662;29;20097;-79
2024/04/01 14:50:26;;;;;;;0.98;0.30;;;11.80;73.90;;;;;;3970472;29;20100;-79
2024/04/01 14:52:27;;;;;;;0.60;0.30;;;11.80;74.10;;;;;;3962138;29;20075;-79
2024/04/01 14:54:29;;;;;;;1.27;0.30;;;11.90;74.00;;;;;;3967315;29;20046;-79
2024/04/01 14:56:30;;;;;;;0.73;0.30;;;12.00;74.00;;;;;;3971274;29;21030;-80
2024/04/01 14:58:33;;;;;;;0.28;0.20;;;12.00;73.80;;;;;;3973212;29;20051;-79
2024/04/01 15:00:35;;;;;;;2.03;0.40;;;11.90;74.10;;;;;;3974080;29;20054;-79
2024/04/01 15:02:38;;;;;;;1.00;0.43;;;11.90;73.80;;;;;;3977085;29;20086;-79
2024/04/01 15:04:41;;;;;;;0.65;0.30;;;12.10;73.70;;;;;;3975905;29;20047;-76
2024/04/01 15:06:44;;;;;;;0.80;0.30;;;12.10;71.90;;;;;;3969212;29;20137;-79
2024/04/01 15:08:45;;;;;;;0.50;0.20;;;12.10;72.50;;;;;;3968931;29;20058;-80
2024/04/01 15:10:55;;;;;;;1.00;0.30;;;12.00;73.00;;;;;;3972184;29;20054;-79
2024/04/01 15:13:03;;;;;;;1.27;0.50;;;12.20;72.80;;;;;;3969562;29;20077;-79
2024/04/01 15:15:08;;;;;;;0.80;0.30;;;12.10;71.80;;;;;;3963762;29;20062;-79
2024/04/01 15:17:13;;;;;;;0.93;0.38;;;12.10;72.60;;;;;;3967175;29;20047;-80
2024/04/01 15:19:18;;;;;;;1.38;0.50;;;12.20;72.70;;;;;;3964340;29;20058;-80
2024/04/01 15:21:21;;;;;;;0.88;0.30;;;12.10;72.20;;;;;;3966854;29;20605;-76
2024/04/01 15:23:21;;;;;;;0.50;0.20;;;12.20;72.10;;;;;;3971581;29;20073;-81
2024/04/01 15:25:24;;;;;;;0.10;0.10;;;12.20;70.70;;;;;;3969599;29;20047;-79
2024/04/01 15:27:25;;;;;;;0.93;0.40;;;12.20;71.50;;;;;;3971854;29;20550;-80
2024/04/01 15:29:28;;;;;;;1.05;0.50;;;12.50;71.60;;;;;;3969220;29;20055;-79
2024/04/01 15:31:29;;;;;;;0.75;0.25;;;12.60;70.70;;;;;;3967454;29;20047;-78
2024/04/01 15:33:37;;;;;;;0.65;0.30;;;12.60;70.10;;;;;;3961736;29;20043;-80
2024/04/01 15:35:38;;;;;;;0.50;0.20;;;12.50;71.30;;;;;;3976836;29;20050;-79
2024/04/01 15:37:40;;;;;;;2.08;0.77;;;12.60;70.50;;;;;;3971637;29;20047;-80
2024/04/01 15:39:42;;;;;;;3.05;1.13;;;12.50;70.50;;;;;;3972339;29;20131;-79
2024/04/01 15:41:45;;;;;;;1.33;0.40;;;12.30;71.80;;;;;;3974226;29;20051;-79
2024/04/01 15:43:51;;;;;;;2.67;0.90;;;12.30;72.70;;;;;;3961946;29;20108;-80
2024/04/01 15:45:54;;;;;;;1.00;0.30;;;12.40;72.70;;;;;;3972463;29;20089;-78
2024/04/01 15:47:54;;;;;;;0.57;0.17;;;12.20;71.70;;;;;;3973973;29;20492;-80
2024/04/01 15:49:58;;;;;;;0.65;0.28;;;12.00;72.80;;;;;;3972372;29;20063;-77
2024/04/01 15:52:01;;;;;;;0.50;0.28;;;11.80;73.90;;;;;;3966650;29;20085;-79
2024/04/01 15:54:04;;;;;;;0.95;0.30;;;11.80;74.40;;;;;;3963008;29;20086;-78
2024/04/01 15:56:06;;;;;;;1.13;0.25;;;11.80;74.90;;;;;;3973725;29;20055;-79
2024/04/01 15:58:08;;;;;;;0.60;0.20;;;11.70;75.30;;;;;;3968652;29;20059;-79
2024/04/01 16:00:11;;;;;;;0.77;0.30;;;11.80;75.10;;;;;;3972563;29;20067;-78
2024/04/01 16:02:16;;;;;;;1.23;0.32;;;11.80;75.10;;;;;;3970858;29;20525;-79
2024/04/01 16:04:20;;;;;;;1.38;0.40;;;11.70;75.40;;;;;;3978168;29;20717;-76
2024/04/01 16:06:27;;;;;;;1.52;0.50;;;11.80;75.60;;;;;;3975610;29;20063;-79
2024/04/01 16:08:29;;;;;;;0.82;0.30;;;11.80;76.00;;;;;;3961047;29;20065;-78